Time;durP1;ratioP1;P1;durP2;ratioP2;P2;SDS_P1;SDS_P2;PMS_P1;PMS_P2;Temp;Humidity;BMP_temperature;BMP_pressure;BME280_temperature;BME280_humidity;BME280_pressure;Samples;Min_cycle;Max_cycle;Signal;HPM_P1;HPM_P2
2022/04/13 00:01:38;;;;;;;3.17;1.90;;;5.90;99.90;;;;;;5051280;28;20205;-65
2022/04/13 00:04:06;;;;;;;5.67;2.10;;;5.90;99.90;;;;;;5050952;28;20220;-66
2022/04/13 00:06:38;;;;;;;3.70;1.80;;;5.90;99.90;;;;;;5051410;28;20574;-66
2022/04/13 00:09:05;;;;;;;2.63;1.87;;;5.90;99.90;;;;;;5051287;28;20193;-66
2022/04/13 00:11:32;;;;;;;2.50;1.67;;;5.90;99.90;;;;;;5050954;28;20209;-66
2022/04/13 00:13:59;;;;;;;3.47;1.90;;;5.90;99.90;;;;;;5051070;28;20208;-67
2022/04/13 00:16:26;;;;;;;3.53;1.80;;;5.90;99.90;;;;;;5050594;28;20236;-66
2022/04/13 00:18:52;;;;;;;5.60;1.60;;;5.90;99.90;;;;;;5051038;28;20206;-66
2022/04/13 00:21:21;;;;;;;3.30;1.90;;;5.90;99.90;;;;;;5050965;28;20205;-66
2022/04/13 00:23:48;;;;;;;3.27;1.87;;;5.90;99.90;;;;;;5051175;28;20228;-65
2022/04/13 00:26:14;;;;;;;2.80;1.90;;;5.90;99.90;;;;;;5051051;28;20296;-66
2022/04/13 00:28:41;;;;;;;4.53;1.97;;;5.90;99.90;;;;;;5050433;28;20217;-66
2022/04/13 00:31:08;;;;;;;3.43;1.90;;;5.80;99.90;;;;;;5050829;28;20204;-67
2022/04/13 00:33:35;;;;;;;2.97;1.90;;;5.80;99.90;;;;;;5052318;28;20635;-66
2022/04/13 00:36:02;;;;;;;2.00;1.70;;;5.90;99.90;;;;;;5054480;28;20558;-66
2022/04/13 00:38:30;;;;;;;3.57;1.90;;;5.90;99.90;;;;;;5054598;28;20211;-66
2022/04/13 00:40:57;;;;;;;2.77;1.80;;;5.90;99.90;;;;;;5054159;28;20225;-66
2022/04/13 00:43:24;;;;;;;2.83;1.80;;;5.90;99.90;;;;;;5054068;28;20206;-66
2022/04/13 00:45:54;;;;;;;6.00;2.13;;;5.90;99.90;;;;;;5054501;28;20255;-66
2022/04/13 00:48:28;;;;;;;4.00;1.90;;;5.90;99.90;;;;;;5054282;28;20678;-68
2022/04/13 00:50:55;;;;;;;5.47;2.20;;;5.90;99.90;;;;;;5054048;28;20189;-67
2022/04/13 00:53:24;;;;;;;4.77;2.10;;;5.90;99.90;;;;;;5054196;28;20201;-68
2022/04/13 00:55:56;;;;;;;4.63;2.00;;;5.90;99.90;;;;;;5054132;28;20659;-69
2022/04/13 00:58:25;;;;;;;4.83;2.30;;;5.90;99.90;;;;;;5054048;28;20194;-68
2022/04/13 01:00:53;;;;;;;3.67;2.10;;;5.90;99.90;;;;;;5054035;28;20209;-67
2022/04/13 01:03:22;;;;;;;4.03;2.20;;;5.90;99.90;;;;;;5053918;28;20320;-68
2022/04/13 01:05:50;;;;;;;3.67;1.97;;;6.00;99.90;;;;;;5053924;28;20588;-69
2022/04/13 01:08:18;;;;;;;3.10;2.10;;;6.00;99.90;;;;;;5053519;28;20239;-69
2022/04/13 01:10:45;;;;;;;2.80;2.00;;;6.00;99.90;;;;;;5053777;28;20213;-67
2022/04/13 01:13:14;;;;;;;4.77;2.20;;;6.00;99.90;;;;;;5053665;28;20212;-68
2022/04/13 01:15:41;;;;;;;4.03;2.03;;;5.90;99.90;;;;;;5053702;28;20367;-68
2022/04/13 01:18:08;;;;;;;3.57;2.20;;;5.90;99.90;;;;;;5053454;28;20296;-67
2022/04/13 01:20:39;;;;;;;3.80;2.20;;;6.00;99.90;;;;;;5053893;28;20208;-68
2022/04/13 01:23:07;;;;;;;6.40;2.33;;;6.00;99.90;;;;;;5053823;28;20643;-68
2022/04/13 01:25:34;;;;;;;4.13;2.00;;;5.90;99.90;;;;;;5053703;28;20553;-67
2022/04/13 01:28:01;;;;;;;4.20;2.33;;;5.90;99.90;;;;;;5053744;28;20482;-68
2022/04/13 01:30:28;;;;;;;4.00;2.20;;;5.90;99.90;;;;;;5053462;28;20346;-67
2022/04/13 01:32:55;;;;;;;4.60;2.40;;;5.90;99.90;;;;;;5053651;28;20212;-68
2022/04/13 01:35:23;;;;;;;5.10;2.50;;;5.90;99.90;;;;;;5053342;28;20212;-68
2022/04/13 01:37:50;;;;;;;4.20;2.40;;;5.90;99.90;;;;;;5053598;28;20466;-68
2022/04/13 01:40:18;;;;;;;3.13;2.20;;;5.90;99.90;;;;;;5053203;28;20212;-67
2022/04/13 01:42:47;;;;;;;3.30;2.10;;;5.90;99.90;;;;;;5053473;28;20224;-68
2022/04/13 01:45:19;;;;;;;4.80;2.50;;;5.90;99.90;;;;;;5052714;28;20232;-68
2022/04/13 01:47:47;;;;;;;3.40;2.17;;;5.90;99.90;;;;;;5053504;28;20247;-68
2022/04/13 01:50:14;;;;;;;5.30;2.47;;;5.90;99.90;;;;;;5053243;28;20255;-68
2022/04/13 01:52:41;;;;;;;3.27;2.03;;;5.90;99.90;;;;;;5053361;28;20201;-68
2022/04/13 01:55:09;;;;;;;3.17;2.00;;;5.90;99.90;;;;;;5052820;28;20208;-68
2022/04/13 01:57:37;;;;;;;4.13;2.03;;;5.90;99.90;;;;;;5052877;28;20232;-67
2022/04/13 02:00:05;;;;;;;2.60;2.07;;;5.90;99.90;;;;;;5053010;28;20569;-69
2022/04/13 02:02:32;;;;;;;4.57;2.30;;;5.90;99.90;;;;;;5052717;28;20703;-69
2022/04/13 02:04:59;;;;;;;3.50;2.23;;;5.90;99.90;;;;;;5052763;28;20209;-68
2022/04/13 02:07:27;;;;;;;3.50;2.00;;;5.90;99.90;;;;;;5052730;28;20205;-67
2022/04/13 02:09:54;;;;;;;3.47;1.97;;;5.90;99.90;;;;;;5052814;28;20204;-69
2022/04/13 02:12:21;;;;;;;3.33;2.17;;;5.90;99.90;;;;;;5052942;28;20213;-68
2022/04/13 02:14:49;;;;;;;3.53;2.13;;;5.90;99.90;;;;;;5052716;28;20205;-69
2022/04/13 02:17:18;;;;;;;3.40;2.10;;;5.90;99.90;;;;;;5052656;28;20221;-68
2022/04/13 02:19:45;;;;;;;3.17;1.90;;;5.90;99.90;;;;;;5052836;28;20271;-67
2022/04/13 02:22:12;;;;;;;3.83;2.27;;;5.90;99.90;;;;;;5052817;28;20678;-65
2022/04/13 02:24:39;;;;;;;3.70;2.07;;;5.90;99.90;;;;;;5052964;28;20584;-66
2022/04/13 02:27:07;;;;;;;4.03;2.17;;;5.90;99.90;;;;;;5052445;28;20640;-65
2022/04/13 02:29:35;;;;;;;3.73;1.80;;;5.90;99.90;;;;;;5052161;28;20233;-65
2022/04/13 02:32:03;;;;;;;3.10;1.93;;;5.90;99.90;;;;;;5052375;28;20656;-65
2022/04/13 02:34:30;;;;;;;2.97;2.00;;;5.80;99.90;;;;;;5052500;28;20201;-66
2022/04/13 02:36:57;;;;;;;3.00;1.83;;;5.80;99.90;;;;;;5052261;28;20233;-65
2022/04/13 02:39:24;;;;;;;2.40;1.90;;;5.70;99.90;;;;;;5052456;28;20209;-66
2022/04/13 02:41:51;;;;;;;2.97;1.90;;;5.70;99.90;;;;;;5051942;28;20217;-66
2022/04/13 02:44:18;;;;;;;4.33;1.80;;;5.60;99.90;;;;;;5052139;28;20205;-66
2022/04/13 02:46:45;;;;;;;2.97;2.20;;;5.50;99.90;;;;;;5051734;28;20234;-66
2022/04/13 02:49:13;;;;;;;2.97;2.10;;;5.50;99.90;;;;;;5052245;28;20231;-66
2022/04/13 02:51:40;;;;;;;3.10;2.40;;;5.50;99.90;;;;;;5052233;28;20569;-65
2022/04/13 02:54:07;;;;;;;3.03;1.80;;;5.50;99.90;;;;;;5052040;28;20205;-66
2022/04/13 02:56:34;;;;;;;1.90;1.60;;;5.50;99.90;;;;;;5051402;28;20395;-65
2022/04/13 02:59:01;;;;;;;3.17;1.63;;;5.50;99.90;;;;;;5051652;28;20208;-66
2022/04/13 03:01:27;;;;;;;5.30;1.90;;;5.50;99.90;;;;;;5052200;28;20212;-66
2022/04/13 03:03:55;;;;;;;3.47;2.07;;;5.60;99.90;;;;;;5051566;28;20212;-66
2022/04/13 03:06:23;;;;;;;3.27;1.73;;;5.50;99.90;;;;;;5051968;28;20721;-66
2022/04/13 03:08:50;;;;;;;3.97;1.90;;;5.50;99.90;;;;;;5051431;28;20212;-66
2022/04/13 03:11:17;;;;;;;2.90;1.63;;;5.60;99.90;;;;;;5051611;28;20220;-66
2022/04/13 03:13:46;;;;;;;2.27;1.77;;;5.50;99.90;;;;;;5051749;28;20205;-66
2022/04/13 03:16:13;;;;;;;2.10;1.70;;;5.50;99.90;;;;;;5051769;28;20221;-66
2022/04/13 03:18:40;;;;;;;3.07;1.97;;;5.50;99.90;;;;;;5051576;28;20206;-65
2022/04/13 03:21:06;;;;;;;2.43;1.90;;;5.50;99.90;;;;;;5051644;28;20205;-65
2022/04/13 03:23:34;;;;;;;2.40;1.83;;;5.50;99.90;;;;;;5051741;28;20205;-67
2022/04/13 03:26:01;;;;;;;2.83;1.77;;;5.50;99.90;;;;;;5051591;28;20207;-65
2022/04/13 03:28:28;;;;;;;4.13;1.90;;;5.50;99.90;;;;;;5051965;28;20216;-65
2022/04/13 03:30:56;;;;;;;4.73;1.90;;;5.50;99.90;;;;;;5051071;28;20237;-65
2022/04/13 03:33:23;;;;;;;3.07;1.70;;;5.50;99.90;;;;;;5051833;28;20201;-66
2022/04/13 03:35:50;;;;;;;3.50;1.93;;;5.50;99.90;;;;;;5051429;28;20205;-65
2022/04/13 03:38:16;;;;;;;4.27;2.37;;;5.50;99.90;;;;;;5051619;28;20263;-67
2022/04/13 03:40:45;;;;;;;3.23;2.10;;;5.50;99.90;;;;;;5051480;28;20227;-66
2022/04/13 03:43:11;;;;;;;4.57;2.17;;;5.50;99.90;;;;;;5051401;28;20205;-65
2022/04/13 03:45:38;;;;;;;2.57;1.80;;;5.50;99.90;;;;;;5051245;28;20571;-66
2022/04/13 03:48:05;;;;;;;3.03;1.90;;;5.50;99.90;;;;;;5051489;28;20201;-67
2022/04/13 03:50:32;;;;;;;6.60;1.97;;;5.50;99.90;;;;;;5051097;28;20213;-66
2022/04/13 03:52:59;;;;;;;2.43;1.97;;;5.50;99.90;;;;;;5051237;28;20557;-65
2022/04/13 03:55:26;;;;;;;3.23;1.70;;;5.50;99.90;;;;;;5051472;28;20209;-65
2022/04/13 03:57:54;;;;;;;3.17;1.87;;;5.60;99.90;;;;;;5051098;28;20635;-65
2022/04/13 04:00:21;;;;;;;2.40;1.90;;;5.60;99.90;;;;;;5051407;28;20729;-66
2022/04/13 04:02:47;;;;;;;2.57;1.90;;;5.60;99.90;;;;;;5051171;28;20235;-65
2022/04/13 04:05:14;;;;;;;2.07;1.57;;;5.60;99.90;;;;;;5051203;28;20216;-65
2022/04/13 04:07:41;;;;;;;2.80;1.77;;;5.70;99.90;;;;;;5051298;28;20557;-66
2022/04/13 04:10:09;;;;;;;3.90;1.90;;;5.60;99.90;;;;;;5054731;28;20220;-65
2022/04/13 04:12:40;;;;;;;3.10;1.90;;;5.60;99.90;;;;;;5055083;28;20216;-66
2022/04/13 04:15:10;;;;;;;2.87;1.83;;;5.60;99.90;;;;;;5055139;28;20216;-65
2022/04/13 04:17:37;;;;;;;1.93;1.60;;;5.70;99.90;;;;;;5054965;28;20222;-65
2022/04/13 04:20:06;;;;;;;5.33;2.10;;;5.70;99.90;;;;;;5054959;28;20556;-65
2022/04/13 04:22:34;;;;;;;3.40;1.70;;;5.70;99.90;;;;;;5054770;28;20679;-66
2022/04/13 04:25:02;;;;;;;2.00;1.80;;;5.70;99.90;;;;;;5054499;28;20292;-66
2022/04/13 04:27:29;;;;;;;2.10;1.70;;;5.60;99.90;;;;;;5054673;28;20235;-66
2022/04/13 04:29:56;;;;;;;5.30;2.10;;;5.70;99.90;;;;;;5054524;28;20239;-65
2022/04/13 04:32:24;;;;;;;4.30;2.00;;;5.70;99.90;;;;;;5054584;28;20202;-66
2022/04/13 04:34:51;;;;;;;2.73;1.97;;;5.70;99.90;;;;;;5054811;28;20225;-65
2022/04/13 04:37:19;;;;;;;3.13;1.97;;;5.70;99.90;;;;;;5054807;28;20228;-66
2022/04/13 04:39:45;;;;;;;4.97;1.93;;;5.70;99.90;;;;;;5054654;28;20202;-65
2022/04/13 04:42:12;;;;;;;2.13;1.77;;;5.70;99.90;;;;;;5054942;28;20207;-66
2022/04/13 04:44:39;;;;;;;3.70;2.10;;;5.70;99.90;;;;;;5054709;28;20220;-66
2022/04/13 04:47:06;;;;;;;3.97;2.27;;;5.70;99.90;;;;;;5054421;28;20208;-66
2022/04/13 04:49:34;;;;;;;4.30;2.10;;;5.60;99.90;;;;;;5054259;28;20266;-66
2022/04/13 04:52:01;;;;;;;3.93;2.30;;;5.60;99.90;;;;;;5054661;28;20663;-66
2022/04/13 04:54:28;;;;;;;3.60;1.80;;;5.60;99.90;;;;;;5054808;28;20531;-68
2022/04/13 04:56:55;;;;;;;2.83;1.97;;;5.60;99.90;;;;;;5054444;28;20553;-66
2022/04/13 04:59:21;;;;;;;3.67;1.87;;;5.60;99.90;;;;;;5054441;28;20206;-67
2022/04/13 05:01:48;;;;;;;5.27;2.00;;;5.50;99.90;;;;;;5053733;28;20229;-65
2022/04/13 05:04:15;;;;;;;3.40;1.93;;;5.50;99.90;;;;;;5054447;28;20205;-65
2022/04/13 05:06:43;;;;;;;3.23;2.03;;;5.50;99.90;;;;;;5053785;28;20202;-65
2022/04/13 05:09:10;;;;;;;4.33;2.17;;;5.50;99.90;;;;;;5053885;28;20209;-66
2022/04/13 05:11:37;;;;;;;3.23;2.00;;;5.50;99.90;;;;;;5054127;28;20216;-66
2022/04/13 05:14:04;;;;;;;4.50;2.10;;;5.50;99.90;;;;;;5053747;28;20205;-65
2022/04/13 05:16:31;;;;;;;3.60;1.80;;;5.50;99.90;;;;;;5053533;28;20240;-66
2022/04/13 05:18:58;;;;;;;2.63;1.80;;;5.50;99.90;;;;;;5054179;28;20575;-67
2022/04/13 05:21:25;;;;;;;3.33;1.90;;;5.50;99.90;;;;;;5052829;28;20210;-66
2022/04/13 05:23:53;;;;;;;2.93;1.97;;;5.50;99.90;;;;;;5054003;28;20227;-65
2022/04/13 05:26:19;;;;;;;4.20;2.13;;;5.50;99.90;;;;;;5054028;28;20209;-66
2022/04/13 05:28:47;;;;;;;3.57;1.80;;;5.50;99.90;;;;;;5053532;28;20197;-65
2022/04/13 05:31:14;;;;;;;3.33;2.10;;;5.50;99.90;;;;;;5053967;28;20190;-66
2022/04/13 05:33:41;;;;;;;3.30;2.20;;;5.50;99.90;;;;;;5053809;28;20223;-66
2022/04/13 05:36:08;;;;;;;3.07;1.93;;;5.40;99.90;;;;;;5053947;28;20215;-66
2022/04/13 05:38:36;;;;;;;4.00;2.07;;;5.40;99.90;;;;;;5053524;28;20245;-66
2022/04/13 05:41:04;;;;;;;2.30;2.00;;;5.40;99.90;;;;;;5053612;28;20207;-66
2022/04/13 05:43:33;;;;;;;3.83;2.10;;;5.40;99.90;;;;;;5053646;28;20205;-66
2022/04/13 05:46:00;;;;;;;2.23;1.90;;;5.40;99.90;;;;;;5053733;28;20292;-65
2022/04/13 05:48:27;;;;;;;3.07;1.77;;;5.40;99.90;;;;;;5053129;28;20530;-65
2022/04/13 05:50:53;;;;;;;2.53;1.80;;;5.40;99.90;;;;;;5053400;28;20213;-66
2022/04/13 05:53:21;;;;;;;4.03;2.00;;;5.40;99.90;;;;;;5053352;28;20223;-66
2022/04/13 05:55:49;;;;;;;2.90;1.73;;;5.40;99.90;;;;;;5053639;28;20620;-66
2022/04/13 05:58:17;;;;;;;2.80;1.70;;;5.40;99.90;;;;;;5053354;28;20228;-66
2022/04/13 06:00:43;;;;;;;2.07;1.67;;;5.40;99.90;;;;;;5053377;28;20215;-65
2022/04/13 06:03:10;;;;;;;2.13;1.80;;;5.40;99.90;;;;;;5053296;28;20225;-66
2022/04/13 06:05:38;;;;;;;2.10;1.80;;;5.40;99.90;;;;;;5052683;28;20213;-67
2022/04/13 06:08:06;;;;;;;1.90;1.67;;;5.40;99.90;;;;;;5053157;28;20252;-67
2022/04/13 06:10:33;;;;;;;2.93;2.30;;;5.40;99.90;;;;;;5052899;28;20267;-67
2022/04/13 06:12:59;;;;;;;5.00;2.10;;;5.40;99.90;;;;;;5052813;28;20213;-66
2022/04/13 06:15:29;;;;;;;2.90;2.20;;;5.30;99.90;;;;;;5052625;28;20216;-65
2022/04/13 06:17:56;;;;;;;2.80;1.90;;;5.30;99.90;;;;;;5052814;28;20225;-65
2022/04/13 06:20:23;;;;;;;2.60;1.90;;;5.40;99.90;;;;;;5052281;28;20263;-66
2022/04/13 06:22:49;;;;;;;3.13;1.87;;;5.40;99.90;;;;;;5052999;28;20638;-65
2022/04/13 06:25:16;;;;;;;2.87;1.80;;;5.40;99.90;;;;;;5052527;28;20213;-66
2022/04/13 06:27:44;;;;;;;3.00;1.93;;;5.30;99.90;;;;;;5052461;28;20211;-65
2022/04/13 06:30:12;;;;;;;3.50;2.00;;;5.30;99.90;;;;;;5052301;28;20233;-66
2022/04/13 06:32:42;;;;;;;3.37;2.10;;;5.30;99.90;;;;;;5052300;28;20216;-66
2022/04/13 06:35:12;;;;;;;2.87;1.90;;;5.30;99.90;;;;;;5052546;28;20201;-66
2022/04/13 06:37:40;;;;;;;2.83;2.20;;;5.30;99.90;;;;;;5052660;28;20233;-67
2022/04/13 06:40:08;;;;;;;2.67;2.10;;;5.30;99.90;;;;;;5052599;28;20705;-66
2022/04/13 06:42:36;;;;;;;4.13;2.40;;;5.30;99.90;;;;;;5052724;28;20221;-66
2022/04/13 06:45:04;;;;;;;3.47;2.40;;;5.40;99.90;;;;;;5052663;28;20205;-66
2022/04/13 06:47:30;;;;;;;3.10;1.90;;;5.30;99.90;;;;;;5052158;28;20211;-67
2022/04/13 06:49:59;;;;;;;3.53;2.07;;;5.20;99.90;;;;;;5052614;28;20210;-67
2022/04/13 06:52:26;;;;;;;2.90;2.00;;;5.20;99.90;;;;;;5052485;28;20679;-66
2022/04/13 06:54:53;;;;;;;3.83;2.13;;;5.20;99.90;;;;;;5052492;28;20201;-65
2022/04/13 06:57:19;;;;;;;3.37;2.10;;;5.20;99.90;;;;;;5052273;28;20221;-66
2022/04/13 06:59:46;;;;;;;3.40;2.00;;;5.20;99.90;;;;;;5052305;28;20679;-66
2022/04/13 07:02:13;;;;;;;5.00;2.30;;;5.10;99.90;;;;;;5051959;28;20224;-68
2022/04/13 07:04:40;;;;;;;5.43;2.30;;;5.10;99.90;;;;;;5052354;28;20570;-66
2022/04/13 07:07:09;;;;;;;3.97;2.00;;;5.10;99.90;;;;;;5052293;28;20231;-66
2022/04/13 07:09:36;;;;;;;2.40;2.10;;;5.10;99.90;;;;;;5052335;28;20206;-66
2022/04/13 07:12:03;;;;;;;5.47;2.30;;;5.10;99.90;;;;;;5052134;28;20563;-66
2022/04/13 07:14:30;;;;;;;2.50;2.03;;;5.20;99.90;;;;;;5051730;28;20209;-66
2022/04/13 07:16:57;;;;;;;2.93;2.30;;;5.20;99.90;;;;;;5051753;28;20216;-67
2022/04/13 07:19:23;;;;;;;2.87;2.00;;;5.20;99.90;;;;;;5051924;28;20683;-67
2022/04/13 07:21:50;;;;;;;5.23;2.97;;;5.20;99.90;;;;;;5051687;28;20224;-66
2022/04/13 07:24:18;;;;;;;3.27;2.37;;;5.20;99.90;;;;;;5051448;28;20212;-66
2022/04/13 07:26:45;;;;;;;7.40;3.07;;;5.20;99.90;;;;;;5051595;28;20280;-65
2022/04/13 07:29:12;;;;;;;3.60;2.30;;;5.20;99.90;;;;;;5051519;28;20233;-66
2022/04/13 07:31:39;;;;;;;3.67;2.00;;;5.20;99.90;;;;;;5051853;28;20213;-67
2022/04/13 07:34:06;;;;;;;3.30;1.97;;;5.20;99.90;;;;;;5051663;28;20613;-66
2022/04/13 07:36:33;;;;;;;3.30;2.03;;;5.30;99.90;;;;;;5051690;28;20296;-69
2022/04/13 07:39:01;;;;;;;5.43;2.27;;;5.30;99.90;;;;;;5051433;28;20225;-67
2022/04/13 07:41:29;;;;;;;2.97;2.10;;;5.30;99.90;;;;;;5051817;28;20674;-67
2022/04/13 07:43:57;;;;;;;3.20;2.10;;;5.30;99.90;;;;;;5051339;28;20573;-66
2022/04/13 07:46:27;;;;;;;3.50;2.10;;;5.30;99.90;;;;;;5051591;28;20209;-66
2022/04/13 07:48:54;;;;;;;3.73;2.20;;;5.30;99.90;;;;;;5051716;28;20241;-67
2022/04/13 07:51:21;;;;;;;4.00;1.97;;;5.40;99.90;;;;;;5051615;28;20205;-66
2022/04/13 07:53:48;;;;;;;3.60;2.00;;;5.40;99.90;;;;;;5051765;28;20561;-68
2022/04/13 07:56:14;;;;;;;3.33;2.00;;;5.40;99.90;;;;;;5051650;28;20304;-67
2022/04/13 07:58:43;;;;;;;5.40;2.60;;;5.40;99.90;;;;;;5051382;28;20224;-66
2022/04/13 08:01:09;;;;;;;3.43;2.20;;;5.40;99.90;;;;;;5051044;28;20229;-67
2022/04/13 08:03:36;;;;;;;4.60;2.23;;;5.40;99.90;;;;;;5051383;28;20213;-67
2022/04/13 08:06:04;;;;;;;4.27;2.23;;;5.40;99.90;;;;;;5051991;28;20202;-68
2022/04/13 08:08:31;;;;;;;4.87;2.30;;;5.40;99.90;;;;;;5051685;28;20201;-66
2022/04/13 08:10:58;;;;;;;4.20;2.90;;;5.30;99.90;;;;;;5051104;28;20217;-65
2022/04/13 08:13:24;;;;;;;5.50;2.57;;;5.30;99.90;;;;;;5051360;28;20232;-66
2022/04/13 08:15:53;;;;;;;4.03;2.60;;;5.30;99.90;;;;;;5051419;28;20216;-66
2022/04/13 08:18:19;;;;;;;4.70;2.50;;;5.30;99.90;;;;;;5050953;28;20530;-66
2022/04/13 08:20:46;;;;;;;2.97;2.20;;;5.40;99.90;;;;;;5051287;28;20209;-69
2022/04/13 08:23:13;;;;;;;3.47;2.30;;;5.40;99.90;;;;;;5051241;28;20205;-65
2022/04/13 08:25:40;;;;;;;3.87;2.20;;;5.40;99.90;;;;;;5051495;28;20297;-65
2022/04/13 08:28:07;;;;;;;3.47;2.20;;;5.40;99.90;;;;;;5050937;28;20228;-65
2022/04/13 08:30:34;;;;;;;3.20;2.00;;;5.50;99.90;;;;;;5050873;28;20233;-66
2022/04/13 08:33:03;;;;;;;5.23;2.30;;;5.50;99.90;;;;;;5050718;28;20221;-68
2022/04/13 08:35:29;;;;;;;4.37;2.30;;;5.50;99.90;;;;;;5050899;28;20206;-65
2022/04/13 08:37:56;;;;;;;3.83;2.10;;;5.60;99.90;;;;;;5051140;28;20237;-66
2022/04/13 08:40:23;;;;;;;3.60;2.10;;;5.50;99.90;;;;;;5050875;28;20202;-65
2022/04/13 08:42:57;;;;;;;5.00;2.53;;;5.50;99.90;;;;;;5051243;28;20209;-67
2022/04/13 08:45:26;;;;;;;4.53;2.10;;;5.60;99.90;;;;;;5051261;28;20193;-67
2022/04/13 08:47:56;;;;;;;3.23;2.33;;;5.60;99.90;;;;;;5051208;28;20197;-66
2022/04/13 08:50:27;;;;;;;4.40;2.03;;;5.60;99.90;;;;;;5051404;28;20225;-67
2022/04/13 08:52:58;;;;;;;2.33;2.10;;;5.60;99.90;;;;;;5051432;28;20529;-66
2022/04/13 08:55:27;;;;;;;3.40;2.00;;;5.70;99.90;;;;;;5052163;28;20189;-66
2022/04/13 08:58:02;;;;;;;3.30;1.90;;;5.70;99.90;;;;;;5054870;28;20252;-66
2022/04/13 09:00:32;;;;;;;2.53;1.87;;;5.80;99.90;;;;;;5054647;28;20193;-68
2022/04/13 09:03:16;;;;;;;3.63;2.07;;;5.80;99.90;;;;;;5054522;28;20276;-66
2022/04/13 09:05:49;;;;;;;2.60;1.93;;;5.90;99.90;;;;;;5054654;28;20206;-66
2022/04/13 09:08:20;;;;;;;4.00;2.10;;;5.90;99.90;;;;;;5054246;28;20570;-65
2022/04/13 09:10:48;;;;;;;2.90;2.10;;;5.90;99.90;;;;;;5054472;28;20270;-66
2022/04/13 09:13:16;;;;;;;2.17;1.97;;;6.00;99.90;;;;;;5054010;28;20209;-66
2022/04/13 09:15:44;;;;;;;4.37;2.13;;;6.00;99.90;;;;;;5054376;28;20208;-67
2022/04/13 09:18:12;;;;;;;5.17;2.07;;;5.90;99.90;;;;;;5053878;28;20528;-66
2022/04/13 09:20:39;;;;;;;2.40;2.00;;;5.90;99.90;;;;;;5053939;28;20213;-66
2022/04/13 09:23:08;;;;;;;2.80;2.00;;;5.90;99.90;;;;;;5053707;28;20594;-66
2022/04/13 09:25:36;;;;;;;4.17;2.00;;;6.00;99.90;;;;;;5054125;28;20228;-67
2022/04/13 09:28:04;;;;;;;4.53;2.43;;;6.00;99.90;;;;;;5054084;28;20198;-68
2022/04/13 09:30:33;;;;;;;4.50;1.90;;;6.00;99.90;;;;;;5053788;28;20703;-65
2022/04/13 09:33:02;;;;;;;5.17;2.27;;;6.00;99.90;;;;;;5053614;28;20247;-66
2022/04/13 09:35:32;;;;;;;5.90;2.40;;;6.10;99.90;;;;;;5053714;28;20201;-65
2022/04/13 09:38:02;;;;;;;5.17;2.40;;;6.20;99.90;;;;;;5053760;28;20239;-67
2022/04/13 09:40:37;;;;;;;4.03;2.07;;;6.20;99.90;;;;;;5053984;28;20644;-68
2022/04/13 09:43:06;;;;;;;3.10;2.10;;;6.20;99.90;;;;;;5053818;28;20195;-65
2022/04/13 09:45:34;;;;;;;3.70;2.00;;;6.20;99.90;;;;;;5053800;28;20213;-66
2022/04/13 09:48:05;;;;;;;3.77;2.00;;;6.20;99.90;;;;;;5053306;28;20209;-67
2022/04/13 09:50:32;;;;;;;5.77;2.33;;;6.30;99.90;;;;;;5053984;28;20686;-66
2022/04/13 09:53:03;;;;;;;2.33;1.80;;;6.30;99.90;;;;;;5053796;28;20205;-67
2022/04/13 09:55:30;;;;;;;5.63;2.20;;;6.30;99.90;;;;;;5054025;28;20194;-67
2022/04/13 09:58:06;;;;;;;2.90;2.00;;;6.40;99.90;;;;;;5054314;28;20206;-66
2022/04/13 10:00:34;;;;;;;2.87;1.83;;;6.40;99.90;;;;;;5054450;28;20255;-68
2022/04/13 10:03:09;;;;;;;2.27;1.83;;;6.40;99.90;;;;;;5053101;28;20235;-68
2022/04/13 10:05:37;;;;;;;3.13;1.70;;;6.40;99.90;;;;;;5053644;28;20275;-68
2022/04/13 10:08:05;;;;;;;2.30;1.80;;;6.40;99.90;;;;;;5052930;28;20214;-67
2022/04/13 10:10:32;;;;;;;4.23;2.03;;;6.40;99.90;;;;;;5053582;28;20212;-68
2022/04/13 10:12:59;;;;;;;3.23;1.70;;;6.40;99.90;;;;;;5053060;28;20201;-67
2022/04/13 10:15:27;;;;;;;1.77;1.57;;;6.40;99.90;;;;;;5053202;28;20237;-70
2022/04/13 10:17:59;;;;;;;2.43;1.53;;;6.40;99.90;;;;;;5053440;28;20201;-68
2022/04/13 10:20:40;;;;;;;1.93;1.50;;;6.30;99.90;;;;;;5053331;28;20190;-69
2022/04/13 10:23:07;;;;;;;2.97;1.60;;;6.30;99.90;;;;;;5053591;28;20193;-69
2022/04/13 10:25:34;;;;;;;1.80;1.50;;;6.20;99.90;;;;;;5053170;28;20201;-65
2022/04/13 10:28:02;;;;;;;3.53;1.60;;;6.30;99.90;;;;;;5052658;28;20201;-66
2022/04/13 10:30:32;;;;;;;2.23;1.40;;;6.30;99.90;;;;;;5052654;28;20259;-66
2022/04/13 10:33:00;;;;;;;1.60;1.50;;;6.30;99.90;;;;;;5053078;28;20207;-68
2022/04/13 10:35:28;;;;;;;4.57;1.80;;;6.20;99.90;;;;;;5052892;28;20204;-66
2022/04/13 10:37:55;;;;;;;1.80;1.43;;;6.20;99.90;;;;;;5052741;28;20201;-66
2022/04/13 10:40:23;;;;;;;1.70;1.60;;;6.20;99.90;;;;;;5052279;28;20221;-66
2022/04/13 10:42:51;;;;;;;2.73;1.50;;;6.30;99.90;;;;;;5052661;28;20564;-67
2022/04/13 10:45:19;;;;;;;1.63;1.50;;;6.30;99.90;;;;;;5052658;28;20316;-66
2022/04/13 10:47:56;;;;;;;1.77;1.60;;;6.20;99.90;;;;;;5052330;28;20205;-67
2022/04/13 10:50:37;;;;;;;3.83;1.70;;;6.30;99.90;;;;;;5052723;28;20190;-66
2022/04/13 10:53:15;;;;;;;1.40;1.30;;;6.20;99.90;;;;;;5052465;28;20243;-67
2022/04/13 10:55:43;;;;;;;3.00;1.40;;;6.20;99.90;;;;;;5051899;28;20189;-66
2022/04/13 10:58:16;;;;;;;1.60;1.50;;;6.20;99.90;;;;;;5052474;28;20206;-67
2022/04/13 11:00:46;;;;;;;1.73;1.47;;;6.30;99.90;;;;;;5052350;28;20232;-65
2022/04/13 11:03:16;;;;;;;1.70;1.60;;;6.20;99.90;;;;;;5051885;28;20212;-66
2022/04/13 11:05:43;;;;;;;1.60;1.50;;;6.20;99.90;;;;;;5051894;28;20207;-66
2022/04/13 11:08:22;;;;;;;1.70;1.50;;;6.20;99.90;;;;;;5052319;28;20201;-66
2022/04/13 11:10:51;;;;;;;2.87;1.50;;;6.20;99.90;;;;;;5052225;28;20200;-66
2022/04/13 11:13:20;;;;;;;2.20;1.60;;;6.20;99.90;;;;;;5052055;28;20250;-66
2022/04/13 11:15:48;;;;;;;1.47;1.37;;;6.20;99.90;;;;;;5051775;28;20205;-68
2022/04/13 11:18:18;;;;;;;2.53;1.50;;;6.10;99.90;;;;;;5051743;28;20227;-66
2022/04/13 11:21:07;;;;;;;2.33;1.40;;;6.10;99.90;;;;;;5051645;28;20195;-67
2022/04/13 11:23:48;;;;;;;1.73;1.30;;;6.10;99.90;;;;;;5051674;28;20292;-66
2022/04/13 11:26:15;;;;;;;1.50;1.40;;;6.10;99.90;;;;;;5051627;28;20212;-66
2022/04/13 11:28:42;;;;;;;2.10;1.50;;;6.20;99.90;;;;;;5051845;28;20224;-69
2022/04/13 11:31:11;;;;;;;1.70;1.40;;;6.20;99.90;;;;;;5052141;28;20200;-66
2022/04/13 11:33:50;;;;;;;2.70;1.57;;;6.30;99.90;;;;;;5051754;28;20229;-67
2022/04/13 11:36:17;;;;;;;1.73;1.30;;;6.30;99.90;;;;;;5051992;28;20190;-65
2022/04/13 11:38:48;;;;;;;1.20;1.10;;;6.30;99.90;;;;;;5051644;28;20229;-66
2022/04/13 11:41:15;;;;;;;2.30;1.37;;;6.30;99.90;;;;;;5051756;28;20557;-66
2022/04/13 11:43:42;;;;;;;1.33;1.23;;;6.20;99.90;;;;;;5051565;28;20682;-67
2022/04/13 11:46:28;;;;;;;1.83;1.30;;;6.20;99.90;;;;;;5051280;28;20223;-66
2022/04/13 11:48:59;;;;;;;1.40;1.30;;;6.20;99.90;;;;;;5051263;28;20212;-65
2022/04/13 11:51:29;;;;;;;2.47;1.40;;;6.20;99.90;;;;;;5052544;28;20605;-67
2022/04/13 11:54:05;;;;;;;1.20;1.10;;;6.20;99.90;;;;;;5051486;28;20197;-68
2022/04/13 11:56:32;;;;;;;1.40;1.30;;;6.20;99.90;;;;;;5051503;28;20204;-68
2022/04/13 11:59:00;;;;;;;1.20;1.20;;;6.10;99.90;;;;;;5051136;28;20276;-68
2022/04/13 12:01:27;;;;;;;1.73;1.50;;;6.10;99.90;;;;;;5051536;28;20229;-68
2022/04/13 12:03:58;;;;;;;1.40;1.30;;;6.10;99.90;;;;;;5051314;28;20313;-67
2022/04/13 12:06:26;;;;;;;1.77;1.50;;;6.00;99.90;;;;;;5051743;28;20244;-68
2022/04/13 12:08:55;;;;;;;1.60;1.50;;;6.00;99.90;;;;;;5051274;28;20205;-67
2022/04/13 12:11:24;;;;;;;1.50;1.40;;;6.00;99.90;;;;;;5051192;28;20206;-67
2022/04/13 12:13:52;;;;;;;1.50;1.40;;;5.90;99.90;;;;;;5051167;28;20209;-69
2022/04/13 12:16:22;;;;;;;1.70;1.50;;;5.90;99.90;;;;;;5051146;28;20303;-68
2022/04/13 12:18:49;;;;;;;1.50;1.40;;;5.90;99.90;;;;;;5051279;28;20213;-67
2022/04/13 12:21:21;;;;;;;1.63;1.53;;;5.80;99.90;;;;;;5051139;28;20212;-68
2022/04/13 12:23:49;;;;;;;2.63;1.47;;;5.80;99.90;;;;;;5050920;28;20276;-68
2022/04/13 12:26:17;;;;;;;1.77;1.67;;;5.70;99.90;;;;;;5051367;28;20206;-68
2022/04/13 12:28:44;;;;;;;1.90;1.60;;;5.70;99.90;;;;;;5050994;28;20313;-67
2022/04/13 12:31:12;;;;;;;1.50;1.40;;;5.70;99.90;;;;;;5055076;28;20224;-67
2022/04/13 12:33:40;;;;;;;1.70;1.60;;;5.70;99.90;;;;;;5055072;28;20216;-68
2022/04/13 12:36:08;;;;;;;1.93;1.57;;;5.70;99.90;;;;;;5054868;28;20216;-68
2022/04/13 12:38:38;;;;;;;1.70;1.60;;;5.70;99.90;;;;;;5054852;28;20214;-68
2022/04/13 12:41:13;;;;;;;2.67;1.53;;;5.70;99.90;;;;;;5054960;28;20247;-67
2022/04/13 12:43:42;;;;;;;2.00;1.60;;;5.70;99.90;;;;;;5054794;28;20189;-67
2022/04/13 12:46:16;;;;;;;1.60;1.50;;;5.80;99.90;;;;;;5054592;28;20558;-67
2022/04/13 12:48:46;;;;;;;1.80;1.53;;;5.80;99.90;;;;;;5054603;28;20193;-67
2022/04/13 12:51:14;;;;;;;1.77;1.67;;;5.80;99.90;;;;;;5054848;28;20205;-68
2022/04/13 12:53:46;;;;;;;2.60;1.80;;;5.80;99.90;;;;;;5054373;28;20221;-67
2022/04/13 12:56:18;;;;;;;1.67;1.57;;;5.80;99.90;;;;;;5054698;28;20612;-67
2022/04/13 12:58:46;;;;;;;2.83;1.60;;;5.90;99.90;;;;;;5054659;28;20547;-68
2022/04/13 13:01:23;;;;;;;2.00;1.80;;;5.80;99.90;;;;;;5054236;28;20350;-68
2022/04/13 13:03:50;;;;;;;1.43;1.33;;;5.80;99.90;;;;;;5054619;28;20193;-68